Terminal Aerodrome Forecast
Issued by NWS Pittsburgh, PA

Current Version | Previous Version | Graphics & Text | Print | Product List | Glossary On
Versions: 1 2 3 4 5 6 7 8 9 10 11 12 13 14 15 16 17 18 19 20 21 22 23 24 25 26 27 28 29
000
FTUS41 KPBZ 291457 AAA
TAFPIT
TAF AMD
KPIT 291457Z 2915/3018 23004KT P6SM SCT200
     FM292000 16008KT P6SM BKN100
      TEMPO 2920/2922 -SHRA BKN050
     FM300300 13008KT P6SM -SHRA SCT020 BKN040
     FM300800 17004KT P6SM -SHRA BKN020
     FM301400 21010KT P6SM BKN035=

USA.gov is the U.S. government's official web portal to all federal, state and local government web resources and services.